Terminal Aerodrome Forecast
Issued by NWS Tuscon, AZ

Home | Current Version | Previous Version | Text Only | Print | Product List | Glossary On
Versions: 1 2 3 4 5 6 7 8 9 10 11 12 13 14 15
759
FTUS45 KTWC 311120
TAFDUG
TAF
KDUG 311120Z 3112/0112 12006KT P6SM SKC
     FM311900 22012G20KT P6SM SCT090
     FM010200 28010KT P6SM SCT100
     FM010800 VRB04KT P6SM SCT120=

USA.gov is the U.S. government's official web portal to all federal, state and local government web resources and services.